Bridgewater, Iowa
Current Conditions -  °F | °C
As of 3:15 AM on Friday 19 Dec 2014 (Local Time) from KCSQ Reporting Station
Haze Haze  
Wind Chill: 28°   Ceiling: 1600
Heat Index: 28°   Visibility: 6mi
Dew Point: 28°   Wind: 3mph
Humidity: 100%   Direction: 170°S
Pressure: 30.24"   Gusts: NA
Location:  41.24°N, 94.67°W
Report Text: KCSQ 190915Z AUTO 17003KT 6SM BR FEW007 BKN016 OVC041 M02/M02 A3024 RMK AO2
Loading
Personal Weather Stations






























Interactive Weather Map New forecast layout! Learn more

10-Day Weather Forecast

Advertisements
Track Severe Weather on mobile